createdAt,value
2023-05-14T00:00:58.387Z,98441.91
2023-05-14T00:02:00.253Z,98436.75
2023-05-14T00:03:01.917Z,98443.56
2023-05-14T00:04:04.269Z,98437.59
2023-05-14T00:05:06.142Z,98439.13
2023-05-14T00:06:08.128Z,98439.19
2023-05-14T00:07:09.697Z,98429.16
2023-05-14T00:08:11.162Z,98434.84
2023-05-14T00:09:13.293Z,98431.97
2023-05-14T00:10:14.839Z,98423.31
2023-05-14T00:11:16.727Z,98431.56
2023-05-14T00:12:18.186Z,98429.22
2023-05-14T00:13:19.669Z,98428.44
2023-05-14T00:14:21.300Z,98427.75
2023-05-14T00:15:23.000Z,98425.88
2023-05-14T00:16:24.441Z,98425.88
2023-05-14T00:17:26.662Z,98423.31
2023-05-14T00:18:28.272Z,98427.19
2023-05-14T00:19:29.784Z,98421.56
2023-05-14T00:20:31.296Z,98417.31
2023-05-14T00:21:32.843Z,98416.25
2023-05-14T00:22:34.932Z,98413.59
2023-05-14T00:23:36.498Z,98414.00
2023-05-14T00:24:37.986Z,98420.53
2023-05-14T00:25:39.572Z,98413.25
2023-05-14T00:26:41.314Z,98415.53
2023-05-14T00:27:42.755Z,98415.19
2023-05-14T00:28:44.347Z,98414.00
2023-05-14T00:29:45.841Z,98416.72
2023-05-14T00:30:47.355Z,98417.06
2023-05-14T00:31:49.422Z,98410.88
2023-05-14T00:32:51.065Z,98417.19
2023-05-14T00:33:52.670Z,98421.03
2023-05-14T00:34:54.153Z,98420.31
2023-05-14T00:35:55.671Z,98418.88
2023-05-14T00:36:57.469Z,98416.28
2023-05-14T00:37:58.951Z,98422.28
2023-05-14T00:39:00.433Z,98418.13
2023-05-14T00:40:03.641Z,98420.75
2023-05-14T00:41:05.165Z,98416.00
2023-05-14T00:42:07.254Z,98420.19
2023-05-14T00:43:08.721Z,98417.13
2023-05-14T00:44:10.219Z,98418.88
2023-05-14T00:45:11.722Z,98415.88
2023-05-14T00:46:14.422Z,98419.56
2023-05-14T00:47:16.012Z,98418.09
2023-05-14T00:48:18.755Z,98414.69
2023-05-14T00:49:21.141Z,98419.97
2023-05-14T00:50:23.304Z,98410.59
2023-05-14T00:51:25.558Z,98420.31
2023-05-14T00:52:27.543Z,98411.16
2023-05-14T00:53:29.138Z,98415.66
2023-05-14T00:54:30.724Z,98417.28
2023-05-14T00:55:32.464Z,98419.16
2023-05-14T00:56:35.309Z,98409.84
2023-05-14T00:57:37.587Z,98419.38
2023-05-14T00:58:39.420Z,98414.56
2023-05-14T00:59:42.535Z,98417.69
2023-05-14T01:00:44.123Z,98421.91
2023-05-14T01:01:45.713Z,98424.13
2023-05-14T01:02:47.307Z,98418.78
2023-05-14T01:03:49.260Z,98419.69
2023-05-14T01:04:52.166Z,98414.63
2023-05-14T01:05:53.516Z,98417.94
2023-05-14T01:07:25.861Z,98414.19
2023-05-14T01:08:41.308Z,98414.00
2023-05-14T01:09:52.459Z,98414.28
2023-05-14T01:11:15.785Z,98416.50
2023-05-14T01:12:38.647Z,98414.28
2023-05-14T01:14:06.969Z,98420.31
2023-05-14T01:15:16.502Z,98421.34
2023-05-14T01:16:20.055Z,98415.66
2023-05-14T01:17:23.073Z,98419.19
2023-05-14T01:18:25.363Z,98419.97
2023-05-14T01:19:47.353Z,98415.88
2023-05-14T01:20:52.663Z,98412.88
2023-05-14T01:21:54.122Z,98416.91
2023-05-14T01:22:55.608Z,98414.69
2023-05-14T01:23:57.057Z,98417.00
2023-05-14T01:24:58.641Z,98412.47
2023-05-14T01:26:00.156Z,98413.44
2023-05-14T01:27:17.599Z,98406.03
2023-05-14T01:28:24.014Z,98405.75
2023-05-14T01:29:28.845Z,98412.47
2023-05-14T01:30:40.375Z,98410.34
2023-05-14T01:31:45.533Z,98400.47
2023-05-14T01:32:51.272Z,98404.97
2023-05-14T01:33:54.727Z,98409.56
2023-05-14T01:34:58.429Z,98402.59
2023-05-14T01:36:00.549Z,98400.00
2023-05-14T01:37:02.779Z,98407.84
2023-05-14T01:38:07.322Z,98401.03
2023-05-14T01:39:10.588Z,98407.69
2023-05-14T01:40:12.882Z,98404.22
2023-05-14T01:41:14.831Z,98405.34
2023-05-14T01:42:16.495Z,98409.56
2023-05-14T01:43:19.013Z,98406.38
2023-05-14T01:44:21.529Z,98411.38
2023-05-14T01:45:23.945Z,98412.59
2023-05-14T01:46:25.584Z,98416.78
2023-05-14T01:47:27.171Z,98415.25
2023-05-14T01:48:30.427Z,98413.03
2023-05-14T01:49:32.636Z,98418.72
2023-05-14T01:50:34.285Z,98408.47
2023-05-14T01:51:35.943Z,98417.56
2023-05-14T01:52:37.761Z,98412.41
2023-05-14T01:53:39.244Z,98409.44
2023-05-14T01:54:40.922Z,98411.06
2023-05-14T01:55:42.796Z,98409.19
2023-05-14T01:56:44.243Z,98407.19
2023-05-14T01:57:46.171Z,98406.59
2023-05-14T01:58:48.075Z,98409.66
2023-05-14T01:59:49.577Z,98410.06
2023-05-14T02:00:51.146Z,98412.69
2023-05-14T02:01:52.793Z,98402.22
2023-05-14T02:02:54.529Z,98410.53
2023-05-14T02:03:57.226Z,98409.00
2023-05-14T02:04:59.196Z,98410.19
2023-05-14T02:06:01.213Z,98410.59
2023-05-14T02:07:05.374Z,98412.56
2023-05-14T02:08:07.675Z,98409.97
2023-05-14T02:09:09.272Z,98409.91
2023-05-14T02:10:11.001Z,98402.41
2023-05-14T02:11:12.605Z,98403.59
2023-05-14T02:12:14.091Z,98408.16
2023-05-14T02:13:17.579Z,98401.78
2023-05-14T02:14:19.202Z,98403.28
2023-05-14T02:15:20.721Z,98408.63
2023-05-14T02:16:22.350Z,98403.28
2023-05-14T02:17:26.051Z,98401.72
2023-05-14T02:18:27.929Z,98403.97
2023-05-14T02:19:30.232Z,98407.44
2023-05-14T02:20:32.101Z,98401.03
2023-05-14T02:21:33.659Z,98404.81
2023-05-14T02:22:35.163Z,98394.63
2023-05-14T02:23:41.453Z,98400.28
2023-05-14T02:24:43.370Z,98396.97
2023-05-14T02:25:44.913Z,98399.25
2023-05-14T02:26:46.406Z,98400.38
2023-05-14T02:27:47.905Z,98397.72
2023-05-14T02:28:49.804Z,98394.69
2023-05-14T02:29:51.286Z,98395.50
2023-05-14T02:30:52.814Z,98400.13
2023-05-14T02:31:54.470Z,98399.78
2023-05-14T02:32:56.190Z,98392.91
2023-05-14T02:33:58.116Z,98399.03
2023-05-14T02:34:59.639Z,98398.66
2023-05-14T02:36:01.167Z,98399.84
2023-05-14T02:37:02.939Z,98398.31
2023-05-14T02:38:04.499Z,98397.28
2023-05-14T02:39:06.410Z,98391.63
2023-05-14T02:40:08.649Z,98397.66
2023-05-14T02:41:10.208Z,98396.97
2023-05-14T02:42:11.696Z,98390.97
2023-05-14T02:43:13.175Z,98392.91
2023-05-14T02:44:14.686Z,98394.06
2023-05-14T02:45:16.268Z,98392.97
2023-05-14T02:46:17.843Z,98391.78
2023-05-14T02:47:19.498Z,98387.28
2023-05-14T02:48:21.222Z,98390.22
2023-05-14T02:49:23.070Z,98389.06
2023-05-14T02:50:24.814Z,98384.94
2023-05-14T02:51:27.097Z,98381.59
2023-05-14T02:52:28.608Z,98385.38
2023-05-14T02:53:30.486Z,98380.41
2023-05-14T02:54:31.941Z,98378.44
2023-05-14T02:55:33.466Z,98376.91
2023-05-14T02:56:35.008Z,98379.59
2023-05-14T02:57:36.480Z,98381.84
2023-05-14T02:58:38.473Z,98380.38
2023-05-14T02:59:39.989Z,98383.47
2023-05-14T03:00:41.812Z,98384.31
2023-05-14T03:01:43.888Z,98377.53
2023-05-14T03:02:46.023Z,98381.34
2023-05-14T03:03:49.086Z,98386.22
2023-05-14T03:04:51.290Z,98381.69
2023-05-14T03:05:52.818Z,98379.13
2023-05-14T03:06:54.349Z,98384.81
2023-05-14T03:07:55.943Z,98381.81
2023-05-14T03:08:57.424Z,98385.56
2023-05-14T03:10:00.401Z,98385.56
2023-05-14T03:11:01.952Z,98394.25
2023-05-14T03:12:03.581Z,98387.09
2023-05-14T03:13:05.121Z,98384.44
2023-05-14T03:14:06.703Z,98383.25
2023-05-14T03:15:09.115Z,98385.09
2023-05-14T03:16:10.600Z,98380.84
2023-05-14T03:17:12.219Z,98381.22
2023-05-14T03:18:15.399Z,98382.41
2023-05-14T03:19:16.921Z,98382.75
2023-05-14T03:20:18.478Z,98375.88
2023-05-14T03:21:20.113Z,98380.41
2023-05-14T03:22:21.898Z,98382.34
2023-05-14T03:23:23.698Z,98385.34
2023-05-14T03:24:25.387Z,98386.94
2023-05-14T03:25:26.977Z,98383.56
2023-05-14T03:26:28.546Z,98387.63
2023-05-14T03:27:29.955Z,98385.38
2023-05-14T03:28:31.734Z,98385.09
2023-05-14T03:29:33.177Z,98383.28
2023-05-14T03:30:34.830Z,98381.81
2023-05-14T03:31:36.907Z,98387.50
2023-05-14T03:32:38.524Z,98384.50
2023-05-14T03:33:40.809Z,98384.50
2023-05-14T03:34:42.399Z,98384.84
2023-05-14T03:35:43.841Z,98387.78
2023-05-14T03:36:45.299Z,98387.84
2023-05-14T03:37:46.773Z,98384.84
2023-05-14T03:38:48.292Z,98385.16
2023-05-14T03:39:49.735Z,98380.47
2023-05-14T03:40:51.268Z,98383.13
2023-05-14T03:41:52.834Z,98386.22
2023-05-14T03:42:54.686Z,98389.28
2023-05-14T03:43:56.134Z,98389.31
2023-05-14T03:44:57.614Z,98385.16
2023-05-14T03:45:59.072Z,98388.56
2023-05-14T03:47:00.574Z,98386.72
2023-05-14T03:48:02.511Z,98396.59
2023-05-14T03:49:04.482Z,98390.94
2023-05-14T03:50:07.149Z,98392.47
2023-05-14T03:51:08.697Z,98390.88
2023-05-14T03:52:10.386Z,98385.91
2023-05-14T03:53:12.195Z,98379.19
2023-05-14T03:54:13.634Z,98374.66
2023-05-14T03:55:15.079Z,98383.69
2023-05-14T03:56:16.556Z,98376.06
2023-05-14T03:57:17.994Z,98380.69
2023-05-14T03:58:19.536Z,98375.47
2023-05-14T03:59:21.025Z,98381.50
2023-05-14T04:00:22.759Z,98378.41
2023-05-14T04:01:24.698Z,98385.59
2023-05-14T04:02:26.751Z,98389.78
2023-05-14T04:03:28.382Z,98389.31
2023-05-14T04:04:30.015Z,98387.16
2023-05-14T04:05:31.471Z,98386.09
2023-05-14T04:06:33.420Z,98388.75
2023-05-14T04:07:34.909Z,98385.78
2023-05-14T04:08:36.340Z,98389.06
2023-05-14T04:09:37.875Z,98389.06
2023-05-14T04:10:39.358Z,98391.00
2023-05-14T04:11:41.565Z,98396.34
2023-05-14T04:12:43.425Z,98394.53
2023-05-14T04:13:44.933Z,98396.06
2023-05-14T04:14:46.488Z,98396.06
2023-05-14T04:15:48.021Z,98400.56
2023-05-14T04:16:49.759Z,98396.06
2023-05-14T04:17:51.298Z,98395.72
2023-05-14T04:18:52.767Z,98401.00
2023-05-14T04:19:54.246Z,98398.38
2023-05-14T04:20:55.748Z,98390.09
2023-05-14T04:21:57.202Z,98393.50
2023-05-14T04:22:59.032Z,98388.25
2023-05-14T04:24:00.483Z,98385.63
2023-05-14T04:25:02.104Z,98392.84
2023-05-14T04:26:04.926Z,98383.38
2023-05-14T04:27:06.963Z,98393.59
2023-05-14T04:28:08.603Z,98394.34
2023-05-14T04:29:10.058Z,98389.47
2023-05-14T04:30:11.934Z,98391.78
2023-05-14T04:31:13.582Z,98393.28
2023-05-14T04:32:15.176Z,98390.22
2023-05-14T04:33:16.919Z,98394.72
2023-05-14T04:34:18.380Z,98397.41
2023-05-14T04:35:22.640Z,98393.28
2023-05-14T04:36:25.640Z,98398.97
2023-05-14T04:37:27.487Z,98393.75
2023-05-14T04:38:28.891Z,98391.16
2023-05-14T04:39:30.398Z,98392.31
2023-05-14T04:40:32.053Z,98395.00
2023-05-14T04:41:33.460Z,98400.34
2023-05-14T04:42:34.922Z,98390.91
2023-05-14T04:43:36.350Z,98391.34
2023-05-14T04:44:40.991Z,98391.41
2023-05-14T04:45:43.103Z,98399.28
2023-05-14T04:46:44.545Z,98393.25
2023-05-14T04:47:46.713Z,98392.94
2023-05-14T04:48:49.051Z,98386.53
2023-05-14T04:49:50.582Z,98389.53
2023-05-14T04:50:52.287Z,98397.13
2023-05-14T04:51:53.755Z,98396.63
2023-05-14T04:52:55.903Z,98390.16
2023-05-14T04:53:57.326Z,98387.19
2023-05-14T04:54:59.205Z,98386.13
2023-05-14T04:56:01.051Z,98383.75
2023-05-14T04:57:03.621Z,98383.09
2023-05-14T04:58:05.309Z,98378.25
2023-05-14T04:59:07.018Z,98385.09
2023-05-14T05:00:10.046Z,98390.47
2023-05-14T05:01:11.560Z,98386.31
2023-05-14T05:02:13.059Z,98387.38
2023-05-14T05:03:14.575Z,98385.50
2023-05-14T05:04:16.386Z,98379.81
2023-05-14T05:05:18.177Z,98385.56
2023-05-14T05:06:19.943Z,98382.97
2023-05-14T05:07:21.518Z,98383.69
2023-05-14T05:08:23.205Z,98381.78
2023-05-14T05:09:24.712Z,98381.47
2023-05-14T05:10:26.418Z,98383.41
2023-05-14T05:11:28.156Z,98384.44
2023-05-14T05:12:30.250Z,98382.56
2023-05-14T05:13:32.292Z,98375.75
2023-05-14T05:14:33.812Z,98382.94
2023-05-14T05:15:35.425Z,98381.03
2023-05-14T05:16:37.265Z,98373.78
2023-05-14T05:17:38.849Z,98371.50
2023-05-14T05:18:42.650Z,98377.16
2023-05-14T05:19:44.694Z,98378.41
2023-05-14T05:20:46.315Z,98373.91
2023-05-14T05:21:48.153Z,98381.53
2023-05-14T05:22:49.596Z,98374.34
2023-05-14T05:23:51.095Z,98378.94
2023-05-14T05:24:52.582Z,98374.00
2023-05-14T05:25:56.936Z,98371.72
2023-05-14T05:26:58.804Z,98372.13
2023-05-14T05:28:00.298Z,98369.50
2023-05-14T05:29:01.957Z,98377.44
2023-05-14T05:30:04.061Z,98372.50
2023-05-14T05:31:08.431Z,98368.34
2023-05-14T05:32:10.314Z,98376.31
2023-05-14T05:33:14.657Z,98375.97
2023-05-14T05:34:16.187Z,98377.09
2023-05-14T05:35:17.619Z,98371.03
2023-05-14T05:36:19.131Z,98369.53
2023-05-14T05:37:20.628Z,98378.28
2023-05-14T05:38:22.093Z,98366.63
2023-05-14T05:39:23.597Z,98366.63
2023-05-14T05:40:25.658Z,98365.16
2023-05-14T05:41:27.583Z,98369.34
2023-05-14T05:42:29.135Z,98358.03
2023-05-14T05:43:30.827Z,98364.88
2023-05-14T05:44:32.284Z,98369.84
2023-05-14T05:45:34.093Z,98363.44
2023-05-14T05:46:35.633Z,98363.44
2023-05-14T05:47:37.258Z,98360.84
2023-05-14T05:48:38.747Z,98359.38
2023-05-14T05:49:40.335Z,98360.59
2023-05-14T05:50:42.875Z,98362.47
2023-05-14T05:51:44.304Z,98359.50
2023-05-14T05:52:45.784Z,98360.25
2023-05-14T05:53:47.224Z,98364.84
2023-05-14T05:54:48.804Z,98360.25
2023-05-14T05:55:51.689Z,98358.03
2023-05-14T05:56:53.123Z,98356.16
2023-05-14T05:57:54.467Z,98355.41
2023-05-14T05:58:56.235Z,98358.84
2023-05-14T05:59:58.105Z,98355.06
2023-05-14T06:01:00.195Z,98357.00
2023-05-14T06:02:01.718Z,98353.63
2023-05-14T06:03:03.278Z,98361.22
2023-05-14T06:04:06.373Z,98357.53
2023-05-14T06:05:09.826Z,98360.94
2023-05-14T06:06:11.341Z,98360.59
2023-05-14T06:07:12.955Z,98367.47
2023-05-14T06:08:14.415Z,98366.78
2023-05-14T06:09:16.180Z,98367.16
2023-05-14T06:10:17.747Z,98363.00
2023-05-14T06:11:19.262Z,98370.59
2023-05-14T06:12:21.744Z,98375.50
2023-05-14T06:13:23.162Z,98376.56
2023-05-14T06:14:25.190Z,98367.84
2023-05-14T06:15:26.645Z,98364.38
2023-05-14T06:16:28.251Z,98373.06
2023-05-14T06:17:29.766Z,98374.94
2023-05-14T06:18:31.412Z,98374.97
2023-05-14T06:19:32.946Z,98369.28
2023-05-14T06:20:34.446Z,98373.44
2023-05-14T06:21:35.867Z,98369.31
2023-05-14T06:22:37.879Z,98372.75
2023-05-14T06:23:39.940Z,98375.41
2023-05-14T06:24:41.393Z,98373.56
2023-05-14T06:25:42.837Z,98374.75
2023-05-14T06:26:44.336Z,98378.56
2023-05-14T06:27:45.958Z,98373.25
2023-05-14T06:28:47.400Z,98367.63
2023-05-14T06:29:48.877Z,98370.31
2023-05-14T06:30:50.919Z,98370.75
2023-05-14T06:31:52.537Z,98376.06
2023-05-14T06:32:54.649Z,98372.28
2023-05-14T06:33:56.084Z,98366.22
2023-05-14T06:34:57.550Z,98374.94
2023-05-14T06:36:00.959Z,98367.41
2023-05-14T06:37:04.180Z,98372.31
2023-05-14T06:38:05.796Z,98370.84
2023-05-14T06:39:07.246Z,98368.22
2023-05-14T06:40:09.062Z,98376.94
2023-05-14T06:41:10.946Z,98381.09
2023-05-14T06:42:12.520Z,98373.16
2023-05-14T06:43:14.014Z,98377.75
2023-05-14T06:44:16.671Z,98372.81
2023-05-14T06:45:18.278Z,98375.09
2023-05-14T06:46:19.799Z,98375.09
2023-05-14T06:47:21.254Z,98370.94
2023-05-14T06:48:23.025Z,98379.25
2023-05-14T06:49:24.589Z,98374.34
2023-05-14T06:50:26.102Z,98372.06
2023-05-14T06:51:27.771Z,98372.84
2023-05-14T06:52:29.322Z,98370.56
2023-05-14T06:53:31.294Z,98368.31
2023-05-14T06:54:32.753Z,98369.03
2023-05-14T06:55:34.631Z,98367.16
2023-05-14T06:56:36.151Z,98366.78
2023-05-14T06:57:40.485Z,98370.59
2023-05-14T06:58:42.252Z,98364.16
2023-05-14T06:59:43.690Z,98370.59
2023-05-14T07:00:45.630Z,98371.75
2023-05-14T07:01:47.264Z,98367.97
2023-05-14T07:02:48.940Z,98367.94
2023-05-14T07:03:50.533Z,98362.66
2023-05-14T07:04:52.077Z,98365.69
2023-05-14T07:05:53.835Z,98370.66
2023-05-14T07:06:55.327Z,98366.47
2023-05-14T07:07:57.004Z,98369.91
2023-05-14T07:08:59.775Z,98365.34
2023-05-14T07:10:01.545Z,98371.44
2023-05-14T07:11:03.020Z,98368.00
2023-05-14T07:12:05.057Z,98363.47
2023-05-14T07:13:06.746Z,98353.22
2023-05-14T07:14:08.196Z,98360.81
2023-05-14T07:15:09.994Z,98356.63
2023-05-14T07:16:11.570Z,98357.41
2023-05-14T07:17:13.288Z,98358.16
2023-05-14T07:18:14.786Z,98362.34
2023-05-14T07:19:16.353Z,98354.38
2023-05-14T07:20:18.202Z,98358.53
2023-05-14T07:21:19.638Z,98356.59
2023-05-14T07:22:21.758Z,98356.59
2023-05-14T07:23:23.498Z,98356.59
2023-05-14T07:24:25.024Z,98357.31
2023-05-14T07:25:26.789Z,98361.06
2023-05-14T07:26:28.216Z,98356.13
2023-05-14T07:27:29.713Z,98358.06
2023-05-14T07:28:31.148Z,98356.16
2023-05-14T07:29:34.980Z,98357.66
2023-05-14T07:30:37.012Z,98361.47
2023-05-14T07:31:38.471Z,98360.31
2023-05-14T07:32:40.113Z,98356.47
2023-05-14T07:33:41.677Z,98355.69
2023-05-14T07:34:43.177Z,98361.00
2023-05-14T07:35:44.836Z,98354.13
2023-05-14T07:36:46.855Z,98350.38
2023-05-14T07:37:48.579Z,98353.00
2023-05-14T07:38:50.087Z,98351.47
2023-05-14T07:39:52.633Z,98361.00
2023-05-14T07:40:54.470Z,98355.72
2023-05-14T07:41:56.401Z,98359.53
2023-05-14T07:42:57.859Z,98351.94
2023-05-14T07:43:59.475Z,98355.78
2023-05-14T07:45:01.375Z,98361.88
2023-05-14T07:46:02.826Z,98353.91
2023-05-14T07:47:04.736Z,98354.69
2023-05-14T07:48:06.494Z,98349.38
2023-05-14T07:49:08.263Z,98353.16
2023-05-14T07:50:11.047Z,98353.56
2023-05-14T07:51:12.533Z,98347.09
2023-05-14T07:52:14.013Z,98340.28
2023-05-14T07:53:15.945Z,98352.06
2023-05-14T07:54:17.513Z,98347.91
2023-05-14T07:55:19.948Z,98352.44
2023-05-14T07:56:23.012Z,98349.78
2023-05-14T07:57:24.532Z,98348.66
2023-05-14T07:58:27.951Z,98347.91
2023-05-14T07:59:32.181Z,98349.44
2023-05-14T08:00:33.666Z,98341.47
2023-05-14T08:01:36.735Z,98348.28
2023-05-14T08:02:40.125Z,98348.25
2023-05-14T08:03:41.991Z,98348.25
2023-05-14T08:04:44.257Z,98341.44
2023-05-14T08:05:45.933Z,98342.56
2023-05-14T08:06:47.361Z,98335.75
2023-05-14T08:07:48.904Z,98344.06
2023-05-14T08:08:50.430Z,98340.28
2023-05-14T08:09:52.166Z,98344.84
2023-05-14T08:10:53.710Z,98343.72
2023-05-14T08:11:55.205Z,98345.63
2023-05-14T08:12:56.678Z,98342.97
2023-05-14T08:13:58.116Z,98342.59
2023-05-14T08:14:59.960Z,98342.22
2023-05-14T08:16:01.411Z,98343.34
2023-05-14T08:17:03.509Z,98343.38
2023-05-14T08:18:05.135Z,98342.59
2023-05-14T08:19:06.812Z,98339.19
2023-05-14T08:20:09.116Z,98344.09
2023-05-14T08:21:10.658Z,98350.56
2023-05-14T08:22:12.401Z,98346.78
2023-05-14T08:23:13.960Z,98343.34
2023-05-14T08:24:15.584Z,98341.06
2023-05-14T08:25:17.126Z,98339.19
2023-05-14T08:26:18.652Z,98340.31
2023-05-14T08:27:20.231Z,98342.97
2023-05-14T08:28:21.697Z,98348.28
2023-05-14T08:29:23.387Z,98331.94
2023-05-14T08:30:25.464Z,98345.19
2023-05-14T08:31:27.484Z,98339.13
2023-05-14T08:32:29.675Z,98339.16
2023-05-14T08:33:31.188Z,98345.22
2023-05-14T08:34:32.949Z,98340.28
2023-05-14T08:35:34.456Z,98336.13
2023-05-14T08:36:36.044Z,98343.31
2023-05-14T08:37:38.822Z,98336.50
2023-05-14T08:38:40.803Z,98336.88
2023-05-14T08:39:42.235Z,98334.22
2023-05-14T08:40:55.796Z,98338.38
2023-05-14T08:41:58.166Z,98336.13
2023-05-14T08:43:00.770Z,98336.09
2023-05-14T08:44:13.346Z,98331.94
2023-05-14T08:45:25.750Z,98339.94
2023-05-14T08:46:29.992Z,98336.50
2023-05-14T08:47:31.664Z,98338.00
2023-05-14T08:48:37.786Z,98334.59
2023-05-14T08:49:41.876Z,98334.59
2023-05-14T08:50:44.006Z,98332.31
2023-05-14T08:51:49.472Z,98328.16
2023-05-14T08:52:51.990Z,98327.38
2023-05-14T08:53:53.626Z,98330.03
2023-05-14T08:54:56.316Z,98325.50
2023-05-14T08:55:58.967Z,98331.56
2023-05-14T08:57:00.637Z,98334.25
2023-05-14T08:58:02.192Z,98325.53
2023-05-14T08:59:05.470Z,98321.34
2023-05-14T09:00:13.800Z,98333.47
2023-05-14T09:01:15.459Z,98323.63
2023-05-14T09:02:19.280Z,98322.47
2023-05-14T09:03:23.120Z,98323.63
2023-05-14T09:04:25.366Z,98327.03
2023-05-14T09:05:27.943Z,98329.69
2023-05-14T09:06:30.824Z,98325.16
2023-05-14T09:07:32.283Z,98322.84
2023-05-14T09:08:34.764Z,98325.91
2023-05-14T09:09:37.117Z,98322.50
2023-05-14T09:10:40.264Z,98324.72
2023-05-14T09:11:43.075Z,98333.09
2023-05-14T09:12:44.608Z,98327.38
2023-05-14T09:13:46.066Z,98321.31
2023-05-14T09:14:48.896Z,98324.72
2023-05-14T09:15:51.261Z,98319.41
2023-05-14T09:16:53.047Z,98320.16
2023-05-14T09:17:54.810Z,98315.63
2023-05-14T09:18:56.393Z,98322.81
2023-05-14T09:19:58.511Z,98322.03
2023-05-14T09:21:00.410Z,98321.31
2023-05-14T09:22:01.808Z,98317.91
2023-05-14T09:23:03.264Z,98317.16
2023-05-14T09:24:04.846Z,98319.06
2023-05-14T09:25:09.800Z,98320.56
2023-05-14T09:26:11.822Z,98322.81
2023-05-14T09:27:20.741Z,98323.97
2023-05-14T09:28:22.818Z,98321.69
2023-05-14T09:29:26.169Z,98321.31
2023-05-14T09:30:27.939Z,98320.19
2023-05-14T09:31:31.477Z,98325.09
2023-05-14T09:32:40.488Z,98324.72
2023-05-14T09:33:42.057Z,98323.63
2023-05-14T09:34:43.919Z,98317.91
2023-05-14T09:35:47.046Z,98320.94
2023-05-14T09:36:48.585Z,98318.63
2023-05-14T09:37:54.533Z,98318.63
2023-05-14T09:39:00.542Z,98317.44
2023-05-14T09:40:09.331Z,98315.53
2023-05-14T09:41:11.225Z,98312.13
2023-05-14T09:42:12.739Z,98311.69
2023-05-14T09:43:14.202Z,98309.75
2023-05-14T09:44:15.761Z,98302.53
2023-05-14T09:45:17.841Z,98303.66
2023-05-14T09:46:19.315Z,98297.91
2023-05-14T09:47:21.046Z,98300.16
2023-05-14T09:48:22.990Z,98300.91
2023-05-14T09:49:24.532Z,98306.56
2023-05-14T09:50:26.694Z,98299.66
2023-05-14T09:51:31.757Z,98304.50
2023-05-14T09:52:33.756Z,98293.09
2023-05-14T09:53:35.691Z,98296.84
2023-05-14T09:54:37.581Z,98288.09
2023-05-14T09:55:41.981Z,98299.47
2023-05-14T09:56:44.159Z,98291.41
2023-05-14T09:57:45.719Z,98300.84
2023-05-14T09:58:47.161Z,98288.66
2023-05-14T09:59:48.819Z,98292.78
2023-05-14T10:00:51.377Z,98293.84
2023-05-14T10:01:53.676Z,98282.34
2023-05-14T10:02:56.793Z,98283.06
2023-05-14T10:03:58.788Z,98280.81
2023-05-14T10:05:03.027Z,98283.38
2023-05-14T10:06:06.762Z,98283.22
2023-05-14T10:07:08.615Z,98285.84
2023-05-14T10:08:14.581Z,98281.13
2023-05-14T10:09:18.885Z,98276.16
2023-05-14T10:10:21.956Z,98280.34
2023-05-14T10:11:27.755Z,98281.81
2023-05-14T10:12:34.374Z,98275.34
2023-05-14T10:13:42.426Z,98278.03
2023-05-14T10:14:49.637Z,98276.56
2023-05-14T10:16:09.660Z,98279.28
2023-05-14T10:17:18.311Z,98273.94
2023-05-14T10:18:22.028Z,98278.56
2023-05-14T10:19:25.024Z,98278.22
2023-05-14T10:20:27.706Z,98272.94
2023-05-14T10:21:31.853Z,98274.47
2023-05-14T10:22:34.977Z,98276.38
2023-05-14T10:23:38.129Z,98275.63
2023-05-14T10:24:40.389Z,98271.16
2023-05-14T10:25:42.545Z,98269.25
2023-05-14T10:26:45.266Z,98276.50
2023-05-14T10:27:47.024Z,98273.84
2023-05-14T10:28:48.798Z,98276.56
2023-05-14T10:29:55.181Z,98273.91
2023-05-14T10:30:56.797Z,98270.06
2023-05-14T10:31:58.268Z,98273.03
2023-05-14T10:33:12.444Z,98275.66
2023-05-14T10:34:41.232Z,98268.09
2023-05-14T10:36:03.167Z,98264.19
2023-05-14T10:37:06.991Z,98268.38
2023-05-14T10:38:08.854Z,98256.19
2023-05-14T10:39:10.318Z,98262.63
2023-05-14T10:40:13.001Z,98263.81
2023-05-14T10:41:17.821Z,98265.75
2023-05-14T10:42:37.451Z,98263.16
2023-05-14T10:43:40.950Z,98257.50
2023-05-14T10:45:09.927Z,98267.34
2023-05-14T10:46:13.830Z,98259.69
2023-05-14T10:47:17.697Z,98257.03
2023-05-14T10:48:19.972Z,98258.94
2023-05-14T10:49:36.165Z,98259.69
2023-05-14T10:50:43.524Z,98259.31
2023-05-14T10:51:49.503Z,98251.03
2023-05-14T10:52:52.030Z,98261.00
2023-05-14T10:53:54.646Z,98252.25
2023-05-14T10:55:00.654Z,98258.00
2023-05-14T10:56:09.490Z,98252.28
2023-05-14T10:57:11.737Z,98250.81
2023-05-14T10:58:13.655Z,98251.22
2023-05-14T10:59:17.370Z,98248.88
2023-05-14T11:00:19.083Z,98244.66
2023-05-14T11:01:24.112Z,98252.22
2023-05-14T11:02:29.423Z,98238.81
2023-05-14T11:03:34.437Z,98239.88
2023-05-14T11:04:36.667Z,98240.16
2023-05-14T11:05:41.067Z,98241.97
2023-05-14T11:06:43.257Z,98236.03
2023-05-14T11:07:46.624Z,98232.28
2023-05-14T11:08:51.050Z,98232.03
2023-05-14T11:09:53.729Z,98229.50
2023-05-14T11:10:56.201Z,98233.16
2023-05-14T11:11:57.717Z,98239.38
2023-05-14T11:12:59.609Z,98230.72
2023-05-14T11:14:01.109Z,98231.69
2023-05-14T11:15:06.638Z,98228.88
2023-05-14T11:16:21.990Z,98229.72
2023-05-14T11:17:29.614Z,98228.00
2023-05-14T11:18:33.629Z,98227.53
2023-05-14T11:19:35.227Z,98225.53
2023-05-14T11:20:36.691Z,98229.03
2023-05-14T11:21:38.362Z,98228.38
2023-05-14T11:22:42.361Z,98220.38
2023-05-14T11:23:46.743Z,98222.22
2023-05-14T11:24:48.606Z,98223.47
2023-05-14T11:25:52.178Z,98220.38
2023-05-14T11:26:55.771Z,98226.88
2023-05-14T11:27:58.840Z,98228.00
2023-05-14T11:29:00.325Z,98221.91
2023-05-14T11:30:04.131Z,98219.22
2023-05-14T11:31:05.780Z,98220.38
2023-05-14T11:32:07.618Z,98230.72
2023-05-14T11:33:09.247Z,98215.50
2023-05-14T11:34:10.979Z,98211.03
2023-05-14T11:35:13.400Z,98216.09
2023-05-14T11:36:14.868Z,98214.94
2023-05-14T11:37:16.972Z,98205.66
2023-05-14T11:38:20.306Z,98212.09
2023-05-14T11:39:21.852Z,98205.19
2023-05-14T11:40:23.762Z,98208.25
2023-05-14T11:41:28.040Z,98214.69
2023-05-14T11:42:29.572Z,98210.53
2023-05-14T11:43:31.082Z,98211.38
2023-05-14T11:44:32.879Z,98210.75
2023-05-14T11:45:34.859Z,98213.06
2023-05-14T11:46:36.417Z,98211.16
2023-05-14T11:47:38.189Z,98207.09
2023-05-14T11:48:39.642Z,98207.47
2023-05-14T11:49:41.582Z,98205.66
2023-05-14T11:50:47.314Z,98208.31
2023-05-14T11:51:48.797Z,98203.72
2023-05-14T11:52:51.036Z,98201.75
2023-05-14T11:53:54.281Z,98204.34
2023-05-14T11:54:55.857Z,98204.34
2023-05-14T11:55:58.027Z,98202.81
2023-05-14T11:57:01.947Z,98202.00
2023-05-14T11:58:03.486Z,98199.25
2023-05-14T11:59:05.185Z,98203.38
2023-05-14T12:00:13.577Z,98198.75
2023-05-14T12:01:15.777Z,98196.66
2023-05-14T12:02:19.220Z,98197.50
2023-05-14T12:03:25.692Z,98190.31
2023-05-14T12:04:29.227Z,98190.66
2023-05-14T12:05:30.820Z,98190.53
2023-05-14T12:06:32.531Z,98189.66
2023-05-14T12:07:34.050Z,98188.00
2023-05-14T12:08:37.666Z,98184.84
2023-05-14T12:09:50.016Z,98185.44
2023-05-14T12:10:53.306Z,98182.16
2023-05-14T12:11:54.750Z,98187.06
2023-05-14T12:12:56.235Z,98188.59
2023-05-14T12:14:01.348Z,98185.25
2023-05-14T12:15:10.308Z,98187.22
2023-05-14T12:16:13.851Z,98183.00
2023-05-14T12:17:18.131Z,98181.75